Time;durP1;ratioP1;P1;durP2;ratioP2;P2;SDS_P1;SDS_P2;PMS_P1;PMS_P2;Temp;Humidity;BMP_temperature;BMP_pressure;BME280_temperature;BME280_humidity;BME280_pressure;Samples;Min_cycle;Max_cycle;Signal;HPM_P1;HPM_P2
2023/10/21 00:01:00;;;;;;;;;;;17.80;61.90;;;;;;4995135;28;86459;-43
2023/10/21 00:03:25;;;;;;;;;;;17.80;61.90;;;;;;4990916;28;88109;-43
2023/10/21 00:05:51;;;;;;;;;;;17.80;61.90;;;;;;4992425;28;89930;-43
2023/10/21 00:08:16;;;;;;;;;;;17.80;61.90;;;;;;4993946;28;88082;-43
2023/10/21 00:10:42;;;;;;;;;;;17.80;61.80;;;;;;4992549;28;88487;-43
2023/10/21 00:13:07;;;;;;;;;;;17.80;61.80;;;;;;4993999;28;88056;-43
2023/10/21 00:15:34;;;;;;;;;;;17.80;61.80;;;;;;4991412;28;87224;-43
2023/10/21 00:17:59;;;;;;;;;;;17.80;61.80;;;;;;4994328;28;87784;-43
2023/10/21 00:20:25;;;;;;;;;;;17.80;61.80;;;;;;4994660;28;87561;-43
2023/10/21 00:22:50;;;;;;;;;;;17.80;61.80;;;;;;4993473;28;87109;-44
2023/10/21 00:25:17;;;;;;;;;;;17.80;61.80;;;;;;4992434;28;88009;-43
2023/10/21 00:27:42;;;;;;;;;;;17.80;61.80;;;;;;4992376;28;87127;-44
2023/10/21 00:30:08;;;;;;;;;;;17.90;61.80;;;;;;4994146;28;87605;-43
2023/10/21 00:32:33;;;;;;;;;;;17.80;61.80;;;;;;4989707;28;89017;-44
2023/10/21 00:34:59;;;;;;;;;;;17.80;61.80;;;;;;4994489;28;87100;-43
2023/10/21 00:37:25;;;;;;;;;;;17.80;61.80;;;;;;4991775;28;87450;-44
2023/10/21 00:39:50;;;;;;;;;;;17.80;61.80;;;;;;4996955;28;88066;-43
2023/10/21 00:42:16;;;;;;;;;;;17.80;61.70;;;;;;4992814;28;87929;-43
2023/10/21 00:44:41;;;;;;;;;;;17.80;61.80;;;;;;4992084;28;88048;-43
2023/10/21 00:47:07;;;;;;;;;;;17.90;61.90;;;;;;4993753;28;87117;-43
2023/10/21 00:49:32;;;;;;;;;;;17.80;61.70;;;;;;4991599;28;87332;-43
2023/10/21 00:51:58;;;;;;;;;;;17.80;61.80;;;;;;4993645;28;87447;-48
2023/10/21 00:54:25;;;;;;;;;;;17.80;61.70;;;;;;4990611;28;87976;-43
2023/10/21 00:56:55;;;;;;;;;;;17.80;61.70;;;;;;4992529;28;88044;-43
2023/10/21 00:59:22;;;;;;;;;;;17.80;61.80;;;;;;4968356;28;87935;-43
2023/10/21 01:01:47;;;;;;;;;;;17.80;61.80;;;;;;4994144;28;87119;-43
2023/10/21 01:04:13;;;;;;;;;;;17.80;61.80;;;;;;4993822;28;88103;-43
2023/10/21 01:06:39;;;;;;;;;;;17.80;61.70;;;;;;4990860;28;87146;-43
2023/10/21 01:09:04;;;;;;;;;;;17.80;61.70;;;;;;4993595;28;88604;-43
2023/10/21 01:11:30;;;;;;;;;;;17.80;61.70;;;;;;4992625;28;88248;-43
2023/10/21 01:13:56;;;;;;;;;;;17.80;61.70;;;;;;4992775;28;86383;-43
2023/10/21 01:16:22;;;;;;;;;;;17.80;61.70;;;;;;4991634;28;87000;-43
2023/10/21 01:18:47;;;;;;;;;;;17.80;61.80;;;;;;4993103;28;88008;-43
2023/10/21 01:21:13;;;;;;;;;;;17.80;61.70;;;;;;4990029;28;88085;-43
2023/10/21 01:23:39;;;;;;;;;;;17.80;61.70;;;;;;4993044;28;88328;-44
2023/10/21 01:26:05;;;;;;;;;;;17.80;61.70;;;;;;4993256;28;87155;-43
2023/10/21 01:28:31;;;;;;;;;;;17.80;61.70;;;;;;4992872;28;87638;-43
2023/10/21 01:30:56;;;;;;;;;;;17.80;61.60;;;;;;4991857;28;87126;-43
2023/10/21 01:33:22;;;;;;;;;;;17.80;61.70;;;;;;4991027;28;87194;-43
2023/10/21 01:35:47;;;;;;;;;;;17.80;61.60;;;;;;4992960;28;87523;-43
2023/10/21 01:38:15;;;;;;;;;;;17.80;61.60;;;;;;4992105;28;86430;-43
2023/10/21 01:40:40;;;;;;;;;;;17.80;61.60;;;;;;4995493;28;87085;-42
2023/10/21 01:43:06;;;;;;;;;;;17.80;61.60;;;;;;4996570;28;87398;-43
2023/10/21 01:45:34;;;;;;;;;;;17.80;61.60;;;;;;4996903;28;88896;-42
2023/10/21 01:48:00;;;;;;;;;;;17.80;61.60;;;;;;4995318;28;88190;-43
2023/10/21 01:50:25;;;;;;;;;;;17.80;61.60;;;;;;4995643;28;88051;-45
2023/10/21 01:52:51;;;;;;;;;;;17.80;61.60;;;;;;4994028;28;87748;-43
2023/10/21 01:55:16;;;;;;;;;;;17.80;61.60;;;;;;4998991;28;87732;-43
2023/10/21 01:57:42;;;;;;;;;;;17.80;61.60;;;;;;4993418;28;88690;-44
2023/10/21 02:00:11;;;;;;;;;;;17.70;61.50;;;;;;4995902;28;87095;-43
2023/10/21 02:02:38;;;;;;;;;;;17.80;61.60;;;;;;4995614;28;87366;-43
2023/10/21 02:05:04;;;;;;;;;;;17.80;61.60;;;;;;4994095;28;87994;-43
2023/10/21 02:07:31;;;;;;;;;;;17.80;61.60;;;;;;4999555;28;87199;-43
2023/10/21 02:09:57;;;;;;;;;;;17.70;62.10;;;;;;4992320;28;88187;-43
2023/10/21 02:12:22;;;;;;;;;;;17.80;61.50;;;;;;4994238;28;87213;-43
2023/10/21 02:14:48;;;;;;;;;;;17.80;61.50;;;;;;4995763;28;87457;-44
2023/10/21 02:17:13;;;;;;;;;;;17.70;61.50;;;;;;4994365;28;88211;-46
2023/10/21 02:19:39;;;;;;;;;;;17.70;61.50;;;;;;4994574;28;87151;-43
2023/10/21 02:22:04;;;;;;;;;;;17.70;61.50;;;;;;4995924;28;87305;-43
2023/10/21 02:24:33;;;;;;;;;;;17.70;62.10;;;;;;4993138;28;88165;-43
2023/10/21 02:26:59;;;;;;;;;;;17.80;61.50;;;;;;4997868;28;86415;-43
2023/10/21 02:29:24;;;;;;;;;;;17.80;61.50;;;;;;4996489;28;87069;-43
2023/10/21 02:31:50;;;;;;;;;;;17.80;62.00;;;;;;4970461;27;87251;-45
2023/10/21 02:34:15;;;;;;;;;;;17.70;61.40;;;;;;4994250;28;88416;-48
2023/10/21 02:36:41;;;;;;;;;;;17.70;61.50;;;;;;4993404;28;88209;-45
2023/10/21 02:39:09;;;;;;;;;;;17.70;61.40;;;;;;4995829;28;86938;-43
2023/10/21 02:41:35;;;;;;;;;;;17.80;61.40;;;;;;4995628;28;87028;-43
2023/10/21 02:44:00;;;;;;;;;;;17.70;61.40;;;;;;4992801;28;89293;-43
2023/10/21 02:46:26;;;;;;;;;;;17.80;61.50;;;;;;4995067;28;87478;-44
2023/10/21 02:48:51;;;;;;;;;;;17.70;61.40;;;;;;4996147;28;87770;-43
2023/10/21 02:51:17;;;;;;;;;;;17.70;61.40;;;;;;4993628;28;86381;-44
2023/10/21 02:53:44;;;;;;;;;;;17.70;61.40;;;;;;4995307;28;87491;-43
2023/10/21 02:56:09;;;;;;;;;;;17.70;61.40;;;;;;4993218;28;89068;-43
2023/10/21 02:58:35;;;;;;;;;;;17.70;61.40;;;;;;4994838;28;88449;-43
2023/10/21 03:01:11;;;;;;;;;;;17.70;61.40;;;;;;4992827;28;87647;-43
2023/10/21 03:03:37;;;;;;;;;;;17.70;61.40;;;;;;4993522;28;87032;-43
2023/10/21 03:06:03;;;;;;;;;;;17.70;61.40;;;;;;4995481;28;87118;-43
2023/10/21 03:08:29;;;;;;;;;;;17.70;61.40;;;;;;4992496;28;87343;-43
2023/10/21 03:10:54;;;;;;;;;;;17.70;61.40;;;;;;4995036;28;88165;-44
2023/10/21 03:13:20;;;;;;;;;;;17.70;61.40;;;;;;4995784;28;87315;-43
2023/10/21 03:15:45;;;;;;;;;;;17.70;61.50;;;;;;4994548;28;87368;-44
2023/10/21 03:18:11;;;;;;;;;;;17.70;61.50;;;;;;4993993;28;87218;-43
2023/10/21 03:20:37;;;;;;;;;;;17.70;61.40;;;;;;4992401;28;87713;-42
2023/10/21 03:23:03;;;;;;;;;;;17.70;61.50;;;;;;4991945;28;88897;-43
2023/10/21 03:25:29;;;;;;;;;;;17.70;61.40;;;;;;4995620;28;87170;-43
2023/10/21 03:27:54;;;;;;;;;;;17.70;61.40;;;;;;4994006;28;88708;-43
2023/10/21 03:30:20;;;;;;;;;;;17.70;61.40;;;;;;4992253;28;88211;-44
2023/10/21 03:32:45;;;;;;;;;;;17.70;61.40;;;;;;4997219;28;87124;-42
2023/10/21 03:35:11;;;;;;;;;;;17.70;61.40;;;;;;4993338;28;88159;-43
2023/10/21 03:37:36;;;;;;;;;;;17.70;61.40;;;;;;4993262;28;87311;-43
2023/10/21 03:40:05;;;;;;;;;;;17.70;61.30;;;;;;4970935;28;86646;-43
2023/10/21 03:42:31;;;;;;;;;;;17.70;61.30;;;;;;4990632;28;89219;-43
2023/10/21 03:44:57;;;;;;;;;;;17.60;61.30;;;;;;4994739;28;87101;-43
2023/10/21 03:47:22;;;;;;;;;;;17.70;61.40;;;;;;4992231;28;88026;-44
2023/10/21 03:49:48;;;;;;;;;;;17.70;61.30;;;;;;4993636;28;88125;-43
2023/10/21 03:52:13;;;;;;;;;;;17.70;61.30;;;;;;4993465;28;87159;-43
2023/10/21 03:54:39;;;;;;;;;;;17.70;61.40;;;;;;4995483;28;87425;-43
2023/10/21 03:57:04;;;;;;;;;;;17.70;61.30;;;;;;4993308;28;87063;-47
2023/10/21 03:59:30;;;;;;;;;;;17.70;61.30;;;;;;4994369;28;87343;-43
2023/10/21 04:01:57;;;;;;;;;;;17.70;61.30;;;;;;4990972;28;87316;-44
2023/10/21 04:04:23;;;;;;;;;;;17.60;61.30;;;;;;4994549;28;86432;-43
2023/10/21 04:06:48;;;;;;;;;;;17.70;61.40;;;;;;4986657;28;91033;-43
2023/10/21 04:09:14;;;;;;;;;;;17.60;61.30;;;;;;5012924;28;88145;-43
2023/10/21 04:11:39;;;;;;;;;;;17.60;61.30;;;;;;5013320;28;88274;-43
2023/10/21 04:14:05;;;;;;;;;;;17.60;61.20;;;;;;5012821;28;87697;-44
2023/10/21 04:16:31;;;;;;;;;;;17.60;61.30;;;;;;5013417;28;89540;-43
2023/10/21 04:18:56;;;;;;;;;;;17.60;61.30;;;;;;5011562;28;87500;-43
2023/10/21 04:21:24;;;;;;;;;;;17.60;61.30;;;;;;5013771;28;88157;-43
2023/10/21 04:23:50;;;;;;;;;;;17.60;61.30;;;;;;5012731;28;88360;-45
2023/10/21 04:26:15;;;;;;;;;;;17.60;61.30;;;;;;5012735;28;87498;-42
2023/10/21 04:28:41;;;;;;;;;;;17.60;61.30;;;;;;5012519;28;88058;-44
2023/10/21 04:31:07;;;;;;;;;;;17.60;61.40;;;;;;5014170;28;87149;-43
2023/10/21 04:33:32;;;;;;;;;;;17.60;61.30;;;;;;5010760;28;89154;-44
2023/10/21 04:35:58;;;;;;;;;;;17.60;61.40;;;;;;5013459;28;89155;-43
2023/10/21 04:38:23;;;;;;;;;;;17.60;61.40;;;;;;5014583;28;86988;-43
2023/10/21 04:40:49;;;;;;;;;;;17.60;61.40;;;;;;5012882;28;87029;-43
2023/10/21 04:43:14;;;;;;;;;;;17.60;61.40;;;;;;5013375;28;87085;-44
2023/10/21 04:45:40;;;;;;;;;;;17.60;61.40;;;;;;5010992;28;88740;-43
2023/10/21 04:48:06;;;;;;;;;;;17.60;61.40;;;;;;5009765;28;88840;-44
2023/10/21 04:50:31;;;;;;;;;;;17.60;61.40;;;;;;5014797;28;87432;-43
2023/10/21 04:52:57;;;;;;;;;;;17.50;61.40;;;;;;4987589;27;87348;-43
2023/10/21 04:55:22;;;;;;;;;;;17.60;61.40;;;;;;5008318;28;88193;-43
2023/10/21 04:57:48;;;;;;;;;;;17.60;61.50;;;;;;5013327;28;87729;-44
2023/10/21 05:00:14;;;;;;;;;;;17.60;61.50;;;;;;5009259;28;88963;-43
2023/10/21 05:02:40;;;;;;;;;;;17.60;61.40;;;;;;5011518;28;87120;-43
2023/10/21 05:05:06;;;;;;;;;;;17.60;61.50;;;;;;5009644;28;88442;-44
2023/10/21 05:07:31;;;;;;;;;;;17.60;61.50;;;;;;5008335;28;87995;-46
2023/10/21 05:09:57;;;;;;;;;;;17.50;61.40;;;;;;5010318;28;87107;-45
2023/10/21 05:12:23;;;;;;;;;;;17.60;61.50;;;;;;5009700;28;87339;-43
2023/10/21 05:14:48;;;;;;;;;;;17.60;61.50;;;;;;5010704;28;87399;-43
2023/10/21 05:17:14;;;;;;;;;;;17.60;61.50;;;;;;5009413;28;86443;-43
2023/10/21 05:19:40;;;;;;;;;;;17.60;61.50;;;;;;5015272;28;87008;-43
2023/10/21 05:22:06;;;;;;;;;;;17.60;61.50;;;;;;5013300;28;87145;-42
2023/10/21 05:24:31;;;;;;;;;;;17.50;61.50;;;;;;5006906;28;88857;-43
2023/10/21 05:26:57;;;;;;;;;;;17.50;61.50;;;;;;5008781;28;87943;-43
2023/10/21 05:29:23;;;;;;;;;;;17.50;61.50;;;;;;5013363;28;87229;-43
2023/10/21 05:31:49;;;;;;;;;;;17.50;61.40;;;;;;5007737;28;87092;-44
2023/10/21 05:34:18;;;;;;;;;;;17.60;61.50;;;;;;5005127;28;89541;-43
2023/10/21 05:36:46;;;;;;;;;;;17.50;61.50;;;;;;5009309;28;87786;-44
2023/10/21 05:39:12;;;;;;;;;;;17.60;61.60;;;;;;5013716;28;87494;-43
2023/10/21 05:41:39;;;;;;;;;;;17.60;61.60;;;;;;5012555;28;88048;-44
2023/10/21 05:44:05;;;;;;;;;;;17.50;61.50;;;;;;5007706;28;87179;-43
2023/10/21 05:46:31;;;;;;;;;;;17.50;61.50;;;;;;5010892;28;88611;-43
2023/10/21 05:48:56;;;;;;;;;;;17.50;61.50;;;;;;5012383;28;88775;-43
2023/10/21 05:51:22;;;;;;;;;;;17.50;61.50;;;;;;5007743;28;89753;-43
2023/10/21 05:53:47;;;;;;;;;;;17.50;62.00;;;;;;5007876;28;87910;-43
2023/10/21 05:56:13;;;;;;;;;;;17.50;61.40;;;;;;5009692;28;87149;-43
2023/10/21 05:58:42;;;;;;;;;;;17.50;61.40;;;;;;5009722;28;89000;-45
2023/10/21 06:01:08;;;;;;;;;;;17.50;61.40;;;;;;5008403;28;89692;-44
2023/10/21 06:03:35;;;;;;;;;;;17.50;61.40;;;;;;5013653;28;87611;-44
2023/10/21 06:06:01;;;;;;;;;;;17.50;61.30;;;;;;5008816;28;88722;-43
2023/10/21 06:08:27;;;;;;;;;;;17.50;61.30;;;;;;5010074;28;87103;-43
2023/10/21 06:10:54;;;;;;;;;;;17.50;61.30;;;;;;5011696;28;87549;-43
2023/10/21 06:13:20;;;;;;;;;;;17.50;61.30;;;;;;5007424;28;89627;-43
2023/10/21 06:15:47;;;;;;;;;;;17.60;61.30;;;;;;5010837;28;87098;-44
2023/10/21 06:18:12;;;;;;;;;;;17.60;61.30;;;;;;5009908;28;87297;-44
2023/10/21 06:20:38;;;;;;;;;;;17.60;61.30;;;;;;5010538;28;89392;-43
2023/10/21 06:23:04;;;;;;;;;;;17.60;61.30;;;;;;5010051;28;87034;-43
2023/10/21 06:25:30;;;;;;;;;;;17.60;61.30;;;;;;5019656;28;87385;-43
2023/10/21 06:27:57;;;;;;;;;;;17.60;61.20;;;;;;5013563;28;89044;-43
2023/10/21 06:30:22;;;;;;;;;;;17.60;61.20;;;;;;5011318;28;86689;-43
2023/10/21 06:32:48;;;;;;;;;;;17.60;61.20;;;;;;5014185;28;88154;-43
2023/10/21 06:35:14;;;;;;;;;;;17.60;61.10;;;;;;5014599;28;87437;-43
2023/10/21 06:37:39;;;;;;;;;;;17.60;61.10;;;;;;5011984;28;88284;-43
2023/10/21 06:40:06;;;;;;;;;;;17.60;61.20;;;;;;5010778;28;88160;-44
2023/10/21 06:42:33;;;;;;;;;;;17.60;61.10;;;;;;5015507;28;87247;-43
2023/10/21 06:44:58;;;;;;;;;;;17.70;61.20;;;;;;5016134;28;88720;-44
2023/10/21 06:47:24;;;;;;;;;;;17.60;61.00;;;;;;5010123;28;87095;-43
2023/10/21 06:49:50;;;;;;;;;;;17.60;61.00;;;;;;5012309;28;87382;-43
2023/10/21 06:52:17;;;;;;;;;;;17.60;61.00;;;;;;5013252;28;87967;-42
2023/10/21 06:54:43;;;;;;;;;;;17.60;61.00;;;;;;5011943;28;86547;-43
2023/10/21 06:57:09;;;;;;;;;;;17.60;61.00;;;;;;5014275;28;87753;-44
2023/10/21 06:59:35;;;;;;;;;;;17.60;61.00;;;;;;5011442;28;89436;-43
2023/10/21 07:02:00;;;;;;;;;;;17.60;61.00;;;;;;5013408;28;88068;-43
2023/10/21 07:04:26;;;;;;;;;;;17.60;61.00;;;;;;5015296;28;88346;-43
2023/10/21 07:06:51;;;;;;;;;;;17.60;61.00;;;;;;5015965;28;89937;-43
2023/10/21 07:09:17;;;;;;;;;;;17.60;60.90;;;;;;5014443;28;87017;-43
2023/10/21 07:11:42;;;;;;;;;;;17.60;60.90;;;;;;5014676;28;89560;-43
2023/10/21 07:14:08;;;;;;;;;;;17.60;60.90;;;;;;5011702;28;87153;-43
2023/10/21 07:16:34;;;;;;;;;;;17.70;61.10;;;;;;5010882;28;88172;-43
2023/10/21 07:18:59;;;;;;;;;;;17.70;61.00;;;;;;5015620;28;87229;-44
2023/10/21 07:21:25;;;;;;;;;;;17.70;61.00;;;;;;5012405;28;87669;-43
2023/10/21 07:23:51;;;;;;;;;;;17.70;61.00;;;;;;5013771;28;88985;-42
2023/10/21 07:26:16;;;;;;;;;;;17.70;60.90;;;;;;5010660;28;88981;-44
2023/10/21 07:28:42;;;;;;;;;;;17.70;60.80;;;;;;5016763;28;87067;-43
2023/10/21 07:31:08;;;;;;;;;;;17.80;60.80;;;;;;5009818;28;88046;-43
2023/10/21 07:33:34;;;;;;;;;;;17.70;60.80;;;;;;5009165;28;87065;-43
2023/10/21 07:36:00;;;;;;;;;;;17.70;60.80;;;;;;5010358;28;86969;-44
2023/10/21 07:38:25;;;;;;;;;;;17.80;60.90;;;;;;5014746;28;87113;-44
2023/10/21 07:40:51;;;;;;;;;;;17.80;60.90;;;;;;5009164;28;87595;-43
2023/10/21 07:43:16;;;;;;;;;;;17.80;60.80;;;;;;5009077;28;88601;-43
2023/10/21 07:45:42;;;;;;;;;;;17.70;60.80;;;;;;5013878;28;88189;-45
2023/10/21 07:48:08;;;;;;;;;;;17.70;60.80;;;;;;5013813;28;87091;-43
2023/10/21 07:50:33;;;;;;;;;;;17.80;60.80;;;;;;5010606;28;89872;-43
2023/10/21 07:52:59;;;;;;;;;;;17.70;60.80;;;;;;5011760;28;87221;-43
2023/10/21 07:55:24;;;;;;;;;;;17.70;60.90;;;;;;5012450;28;87639;-44
2023/10/21 07:57:50;;;;;;;;;;;17.80;60.90;;;;;;5012764;28;87967;-43
2023/10/21 08:00:16;;;;;;;;;;;17.80;60.90;;;;;;5012797;28;87139;-43
2023/10/21 08:02:41;;;;;;;;;;;17.80;60.90;;;;;;5008530;28;88951;-43
2023/10/21 08:05:07;;;;;;;;;;;17.80;60.90;;;;;;5013474;28;88192;-45
2023/10/21 08:07:33;;;;;;;;;;;17.80;60.90;;;;;;5011830;28;86448;-44
2023/10/21 08:09:59;;;;;;;;;;;17.80;61.00;;;;;;5009675;28;87240;-43
2023/10/21 08:12:25;;;;;;;;;;;17.80;61.00;;;;;;5013467;28;89114;-43
2023/10/21 08:14:50;;;;;;;;;;;17.80;61.10;;;;;;5011884;28;88621;-43
2023/10/21 08:17:16;;;;;;;;;;;17.80;61.00;;;;;;5012747;28;88175;-44
2023/10/21 08:19:41;;;;;;;;;;;17.90;61.70;;;;;;5011724;28;87162;-43
2023/10/21 08:22:07;;;;;;;;;;;17.90;61.10;;;;;;5010035;28;87864;-43
2023/10/21 08:24:32;;;;;;;;;;;17.80;61.00;;;;;;5014204;28;87940;-43
2023/10/21 08:26:59;;;;;;;;;;;17.90;61.00;;;;;;5010288;28;87226;-45
2023/10/21 08:29:25;;;;;;;;;;;17.90;61.00;;;;;;5013498;28;88830;-43
2023/10/21 08:31:50;;;;;;;;;;;17.90;61.10;;;;;;5009625;28;88563;-43
2023/10/21 08:34:16;;;;;;;;;;;17.90;61.10;;;;;;5015774;28;87199;-43
2023/10/21 08:36:42;;;;;;;;;;;17.90;61.10;;;;;;5009564;28;87783;-44
2023/10/21 08:39:08;;;;;;;;;;;17.90;61.10;;;;;;5012462;28;88070;-43
2023/10/21 08:41:37;;;;;;;;;;;17.90;61.10;;;;;;5010764;28;88240;-43
2023/10/21 08:44:05;;;;;;;;;;;17.90;61.20;;;;;;5011332;28;88019;-46
2023/10/21 08:46:32;;;;;;;;;;;17.90;61.20;;;;;;5006563;28;87552;-43
2023/10/21 08:48:58;;;;;;;;;;;17.90;61.10;;;;;;5007837;28;87324;-44
2023/10/21 08:51:25;;;;;;;;;;;17.90;61.10;;;;;;5009864;28;89355;-44
2023/10/21 08:53:58;;;;;;;;;;;18.00;61.10;;;;;;5015213;28;87143;-43
2023/10/21 08:56:23;;;;;;;;;;;18.00;61.20;;;;;;5009567;28;87312;-45
2023/10/21 08:58:49;;;;;;;;;;;18.00;61.20;;;;;;5008392;28;88978;-44
2023/10/21 09:01:15;;;;;;;;;;;18.00;61.20;;;;;;5010523;28;88888;-43
2023/10/21 09:03:41;;;;;;;;;;;18.00;61.30;;;;;;5012257;28;88953;-44
2023/10/21 09:06:10;;;;;;;;;;;18.00;61.20;;;;;;5011649;28;87999;-43
2023/10/21 09:08:36;;;;;;;;;;;18.00;61.20;;;;;;5013108;28;88741;-43
2023/10/21 09:11:07;;;;;;;;;;;18.10;61.20;;;;;;5008912;28;88060;-43
2023/10/21 09:13:34;;;;;;;;;;;18.00;61.10;;;;;;5011817;28;87064;-43
2023/10/21 09:16:00;;;;;;;;;;;18.00;61.20;;;;;;5011153;28;89094;-43
2023/10/21 09:18:26;;;;;;;;;;;18.10;61.20;;;;;;5004686;28;87858;-44
2023/10/21 09:20:51;;;;;;;;;;;18.10;61.20;;;;;;5010900;28;87338;-43
2023/10/21 09:23:17;;;;;;;;;;;18.10;61.80;;;;;;5010808;28;88737;-43
2023/10/21 09:25:49;;;;;;;;;;;18.10;61.20;;;;;;5008282;28;87349;-43
2023/10/21 09:28:22;;;;;;;;;;;18.10;61.00;;;;;;5007999;28;88841;-43
2023/10/21 09:30:57;;;;;;;;;;;18.10;60.90;;;;;;5009950;28;89474;-43
2023/10/21 09:33:24;;;;;;;;;;;18.10;60.90;;;;;;5008124;28;87006;-43
2023/10/21 09:36:01;;;;;;;;;;;18.20;60.80;;;;;;5008867;28;87457;-43
2023/10/21 09:38:27;;;;;;;;;;;18.20;60.60;;;;;;5011282;28;88152;-43
2023/10/21 09:40:53;;;;;;;;;;;18.20;60.50;;;;;;5011657;28;89149;-43
2023/10/21 09:43:20;;;;;;;;;;;18.20;60.30;;;;;;5010400;28;87911;-43
2023/10/21 09:45:46;;;;;;;;;;;18.20;60.40;;;;;;5009810;28;87839;-43
2023/10/21 09:48:12;;;;;;;;;;;18.20;60.20;;;;;;5009854;28;86967;-43
2023/10/21 09:50:42;;;;;;;;;;;18.20;60.20;;;;;;5011249;28;89732;-44
2023/10/21 09:53:11;;;;;;;;;;;18.20;60.20;;;;;;5007979;28;88558;-43
2023/10/21 09:55:39;;;;;;;;;;;18.20;59.80;;;;;;5007767;28;88839;-43
2023/10/21 09:58:07;;;;;;;;;;;18.30;59.70;;;;;;5012615;28;88426;-43
2023/10/21 10:00:35;;;;;;;;;;;18.30;59.70;;;;;;5016543;28;87144;-44
2023/10/21 10:03:01;;;;;;;;;;;18.30;59.80;;;;;;5007410;28;87803;-44
2023/10/21 10:05:27;;;;;;;;;;;18.30;59.40;;;;;;5010574;28;87780;-43
2023/10/21 10:07:52;;;;;;;;;;;18.40;59.30;;;;;;5015034;28;87365;-43
2023/10/21 10:10:20;;;;;;;;;;;18.30;59.90;;;;;;5016631;28;87282;-44
2023/10/21 10:12:52;;;;;;;;;;;18.40;59.60;;;;;;5015260;28;87734;-44
2023/10/21 10:15:34;;;;;;;;;;;18.40;58.90;;;;;;5008653;28;87753;-43
2023/10/21 10:18:03;;;;;;;;;;;18.40;59.40;;;;;;5011474;28;88858;-46
2023/10/21 10:20:29;;;;;;;;;;;18.40;59.40;;;;;;5014116;28;87547;-44
2023/10/21 10:23:02;;;;;;;;;;;18.40;59.20;;;;;;5014832;28;87459;-43
2023/10/21 10:25:30;;;;;;;;;;;18.50;59.30;;;;;;5011930;28;87152;-44
2023/10/21 10:28:08;;;;;;;;;;;18.50;59.30;;;;;;5014537;28;87152;-44
2023/10/21 10:30:34;;;;;;;;;;;18.50;59.20;;;;;;5011667;28;90188;-44
2023/10/21 10:33:06;;;;;;;;;;;18.40;59.00;;;;;;5011011;28;87089;-43
2023/10/21 10:35:34;;;;;;;;;;;18.50;59.40;;;;;;5013553;28;87324;-43
2023/10/21 10:38:00;;;;;;;;;;;18.50;59.30;;;;;;5012261;28;88040;-45
2023/10/21 10:40:36;;;;;;;;;;;18.50;58.90;;;;;;5010512;28;87139;-43
2023/10/21 10:43:03;;;;;;;;;;;18.60;59.00;;;;;;5011040;28;88999;-43
2023/10/21 10:45:30;;;;;;;;;;;18.60;59.20;;;;;;5018171;28;87251;-43
2023/10/21 10:47:58;;;;;;;;;;;18.60;59.10;;;;;;5010701;28;88719;-44
2023/10/21 10:50:24;;;;;;;;;;;18.60;58.80;;;;;;5014394;28;88203;-44
2023/10/21 10:52:49;;;;;;;;;;;18.60;59.00;;;;;;5012536;28;87102;-44
2023/10/21 10:55:15;;;;;;;;;;;18.70;58.80;;;;;;5015830;28;87514;-43
2023/10/21 10:57:42;;;;;;;;;;;18.60;58.80;;;;;;5008745;28;88066;-44
2023/10/21 11:00:10;;;;;;;;;;;18.60;58.60;;;;;;5012685;28;87470;-43
2023/10/21 11:02:45;;;;;;;;;;;18.70;58.80;;;;;;5013122;28;87069;-45
2023/10/21 11:05:20;;;;;;;;;;;18.70;58.70;;;;;;5016543;28;88025;-44
2023/10/21 11:07:54;;;;;;;;;;;18.70;58.70;;;;;;5010368;28;88064;-43
2023/10/21 11:10:21;;;;;;;;;;;18.80;58.90;;;;;;5011179;28;87809;-44
2023/10/21 11:12:48;;;;;;;;;;;18.80;58.80;;;;;;5011894;28;86974;-44
2023/10/21 11:15:13;;;;;;;;;;;18.80;58.40;;;;;;5016374;28;88865;-44
2023/10/21 11:17:39;;;;;;;;;;;18.80;58.50;;;;;;5009969;28;88086;-43
2023/10/21 11:20:07;;;;;;;;;;;18.80;58.60;;;;;;5010674;28;87235;-44
2023/10/21 11:22:33;;;;;;;;;;;18.80;58.60;;;;;;5011712;28;88851;-43
2023/10/21 11:24:59;;;;;;;;;;;18.80;58.80;;;;;;5015304;28;87257;-43
2023/10/21 11:27:24;;;;;;;;;;;18.90;58.70;;;;;;5014033;28;87761;-43
2023/10/21 11:29:52;;;;;;;;;;;18.90;58.40;;;;;;5009194;28;88046;-45
2023/10/21 11:32:25;;;;;;;;;;;18.90;58.40;;;;;;5013622;28;88027;-43
2023/10/21 11:34:51;;;;;;;;;;;18.90;58.70;;;;;;5012264;28;88407;-43
2023/10/21 11:37:18;;;;;;;;;;;19.00;58.60;;;;;;5007242;28;87682;-44
2023/10/21 11:39:43;;;;;;;;;;;19.00;58.50;;;;;;5009984;28;87191;-44
2023/10/21 11:42:18;;;;;;;;;;;19.00;58.30;;;;;;5021468;28;90632;-44
2023/10/21 11:45:03;;;;;;;;;;;19.00;58.50;;;;;;5010295;28;88053;-44
2023/10/21 11:47:29;;;;;;;;;;;19.00;58.40;;;;;;5009340;28;87175;-44
2023/10/21 11:49:56;;;;;;;;;;;19.10;58.10;;;;;;5013645;28;88669;-43
2023/10/21 11:52:22;;;;;;;;;;;19.00;58.30;;;;;;5013828;28;87114;-43
2023/10/21 11:58:38;;;;;;;;;;;19.10;58.30;;;;;;5004137;28;88920;-46
2023/10/21 12:14:34;;;;;;;;;;;19.20;58.30;;;;;;5012204;28;88028;-44
2023/10/21 12:25:05;;;;;;;;;;;19.30;58.30;;;;;;5013117;28;88986;-43
2023/10/21 12:43:10;;;;;;;;;;;19.50;57.70;;;;;;5010714;28;87120;-43
2023/10/21 12:45:39;;;;;;;;;;;19.50;57.80;;;;;;5011783;28;87233;-44
2023/10/21 12:48:08;;;;;;;;;;;19.40;57.90;;;;;;5012141;28;89570;-43
2023/10/21 12:50:34;;;;;;;;;;;19.50;58.00;;;;;;5009657;28;88922;-43
2023/10/21 12:53:03;;;;;;;;;;;19.50;57.80;;;;;;5009112;28;88232;-43
2023/10/21 12:55:28;;;;;;;;;;;19.50;57.70;;;;;;5009555;28;88136;-48
2023/10/21 12:57:54;;;;;;;;;;;19.50;53.20;;;;;;5012115;28;87581;-44
2023/10/21 13:00:21;;;;;;;;;;;19.70;52.40;;;;;;5013786;28;87820;-45
2023/10/21 13:02:47;;;;;;;;;;;19.70;50.90;;;;;;5005574;28;87956;-44
2023/10/21 13:05:13;;;;;;;;;;;19.70;50.00;;;;;;5010281;28;87440;-48
2023/10/21 13:07:39;;;;;;;;;;;19.80;50.40;;;;;;5012687;28;87229;-46
2023/10/21 13:10:09;;;;;;;;;;;19.90;50.30;;;;;;5010424;28;87093;-46
2023/10/21 13:12:38;;;;;;;;;;;19.90;48.00;;;;;;5008858;28;89010;-44
2023/10/21 13:15:09;;;;;;;;;;;20.00;49.40;;;;;;5010211;28;88933;-43
2023/10/21 13:17:35;;;;;;;;;;;20.00;50.00;;;;;;5011915;28;87207;-44
2023/10/21 13:20:00;;;;;;;;;;;20.10;49.60;;;;;;5013897;28;89612;-49
2023/10/21 13:22:26;;;;;;;;;;;20.00;50.10;;;;;;5007405;28;87626;-44
2023/10/21 13:24:51;;;;;;;;;;;20.00;50.00;;;;;;5011864;28;87580;-43
2023/10/21 13:27:17;;;;;;;;;;;20.00;50.80;;;;;;5009005;28;88150;-42
2023/10/21 13:29:42;;;;;;;;;;;19.90;51.00;;;;;;5009049;28;87173;-46
2023/10/21 13:32:08;;;;;;;;;;;19.90;51.20;;;;;;5009436;28;88756;-46
2023/10/21 13:34:33;;;;;;;;;;;20.00;49.90;;;;;;5011690;28;88163;-51
2023/10/21 13:36:59;;;;;;;;;;;20.10;48.80;;;;;;5015213;28;87236;-50
2023/10/21 13:39:28;;;;;;;;;;;20.20;49.00;;;;;;5011805;28;88145;-46
2023/10/21 13:41:53;;;;;;;;;;;20.30;47.90;;;;;;5014871;28;88307;-47
2023/10/21 13:44:19;;;;;;;;;;;20.30;47.00;;;;;;5012676;28;87769;-44
2023/10/21 13:46:44;;;;;;;;;;;20.30;47.90;;;;;;5021409;28;88434;-44
2023/10/21 13:49:19;;;;;;;;;;;20.50;46.90;;;;;;5026286;28;88324;-51
2023/10/21 13:51:45;;;;;;;;;;;20.50;47.30;;;;;;5031943;28;87933;-45
2023/10/21 13:54:12;;;;;;;;;;;20.50;47.40;;;;;;5033086;27;89445;-46
2023/10/21 13:56:38;;;;;;;;;;;20.50;46.90;;;;;;5026758;27;86406;-48
2023/10/21 13:59:09;;;;;;;;;;;20.60;47.00;;;;;;5026903;27;87142;-47
2023/10/21 14:01:35;;;;;;;;;;;20.50;47.00;;;;;;5032888;28;89369;-49
2023/10/21 14:04:00;;;;;;;;;;;20.60;47.00;;;;;;5033884;28;88121;-45
2023/10/21 14:06:26;;;;;;;;;;;20.60;47.20;;;;;;5026411;28;88834;-45
2023/10/21 14:08:51;;;;;;;;;;;20.70;46.90;;;;;;5030170;28;87116;-48
2023/10/21 14:11:17;;;;;;;;;;;20.60;46.80;;;;;;5034115;28;87832;-49
2023/10/21 14:13:46;;;;;;;;;;;20.60;47.00;;;;;;5031835;27;87213;-47
2023/10/21 14:16:14;;;;;;;;;;;20.60;46.70;;;;;;5025198;28;87202;-46
2023/10/21 14:18:43;;;;;;;;;;;20.60;46.60;;;;;;5027608;28;88689;-46
2023/10/21 14:21:10;;;;;;;;;;;20.60;47.20;;;;;;5035207;27;87593;-43
2023/10/21 14:23:35;;;;;;;;;;;20.70;46.70;;;;;;5028035;28;87693;-47
2023/10/21 14:26:01;;;;;;;;;;;20.60;46.90;;;;;;5028984;28;87626;-45
2023/10/21 14:28:27;;;;;;;;;;;20.70;46.60;;;;;;5033492;28;88148;-55
2023/10/21 14:30:54;;;;;;;;;;;20.70;46.30;;;;;;5034715;28;88324;-49
2023/10/21 14:33:20;;;;;;;;;;;20.70;46.40;;;;;;5022350;28;88009;-47
2023/10/21 14:35:47;;;;;;;;;;;20.80;47.40;;;;;;5026774;28;88803;-46
2023/10/21 14:38:13;;;;;;;;;;;20.80;46.50;;;;;;5033940;27;87338;-47
2023/10/21 14:40:39;;;;;;;;;;;20.80;46.30;;;;;;5031694;28;88830;-42
2023/10/21 14:43:06;;;;;;;;;;;20.70;47.30;;;;;;5026921;28;88895;-46
2023/10/21 14:45:31;;;;;;;;;;;20.80;47.60;;;;;;5029800;27;87921;-48
2023/10/21 14:47:58;;;;;;;;;;;20.80;47.70;;;;;;5036848;28;88101;-44
2023/10/21 14:50:25;;;;;;;;;;;20.80;47.90;;;;;;5021573;27;88931;-45
2023/10/21 14:52:50;;;;;;;;;;;20.80;48.30;;;;;;5025861;28;90570;-45